sensor_id;sensor_type;location;lat;lon;timestamp;temperature;humidity
37356;DHT22;48747;50.250;18.848;2022-12-19T00:00:50;-7.90;99.90
37356;DHT22;48747;50.250;18.848;2022-12-19T00:02:53;-7.90;99.90
37356;DHT22;48747;50.250;18.848;2022-12-19T00:04:56;-7.90;99.90
37356;DHT22;48747;50.250;18.848;2022-12-19T00:06:59;-7.90;99.90
37356;DHT22;48747;50.250;18.848;2022-12-19T00:09:02;-8.00;99.90
37356;DHT22;48747;50.250;18.848;2022-12-19T00:11:05;-8.00;99.90
37356;DHT22;48747;50.250;18.848;2022-12-19T00:13:08;-8.00;99.90
37356;DHT22;48747;50.250;18.848;2022-12-19T00:15:11;-7.90;99.90
37356;DHT22;48747;50.250;18.848;2022-12-19T00:17:15;-7.80;99.90
37356;DHT22;48747;50.250;18.848;2022-12-19T00:19:18;-7.80;99.90
37356;DHT22;48747;50.250;18.848;2022-12-19T00:21:24;-7.90;99.90
37356;DHT22;48747;50.250;18.848;2022-12-19T00:23:28;-7.90;99.90
37356;DHT22;48747;50.250;18.848;2022-12-19T00:25:32;-7.90;99.90
37356;DHT22;48747;50.250;18.848;2022-12-19T00:27:35;-7.80;99.90
37356;DHT22;48747;50.250;18.848;2022-12-19T00:29:38;-7.90;99.90
37356;DHT22;48747;50.250;18.848;2022-12-19T00:31:41;-7.80;99.90
37356;DHT22;48747;50.250;18.848;2022-12-19T00:33:45;-7.80;99.90
37356;DHT22;48747;50.250;18.848;2022-12-19T00:35:48;-7.80;99.90
37356;DHT22;48747;50.250;18.848;2022-12-19T00:37:51;-7.80;99.90
37356;DHT22;48747;50.250;18.848;2022-12-19T00:39:54;-7.80;99.90
37356;DHT22;48747;50.250;18.848;2022-12-19T00:41:57;-7.80;99.90
37356;DHT22;48747;50.250;18.848;2022-12-19T00:44:05;-7.80;99.90
37356;DHT22;48747;50.250;18.848;2022-12-19T00:46:12;-7.80;99.90
37356;DHT22;48747;50.250;18.848;2022-12-19T00:48:15;-7.80;99.90
37356;DHT22;48747;50.250;18.848;2022-12-19T00:50:18;-7.80;99.90
37356;DHT22;48747;50.250;18.848;2022-12-19T00:52:21;-7.80;99.90
37356;DHT22;48747;50.250;18.848;2022-12-19T00:54:24;-7.80;99.90
37356;DHT22;48747;50.250;18.848;2022-12-19T00:56:30;-7.80;99.90
37356;DHT22;48747;50.250;18.848;2022-12-19T00:58:34;-7.80;99.90
37356;DHT22;48747;50.250;18.848;2022-12-19T01:00:37;-7.70;99.90
37356;DHT22;48747;50.250;18.848;2022-12-19T01:02:40;-7.70;99.90
37356;DHT22;48747;50.250;18.848;2022-12-19T01:04:43;-7.80;99.90
37356;DHT22;48747;50.250;18.848;2022-12-19T01:06:46;-7.80;99.90
37356;DHT22;48747;50.250;18.848;2022-12-19T01:08:49;-7.80;99.90
37356;DHT22;48747;50.250;18.848;2022-12-19T01:10:53;-7.80;99.90
37356;DHT22;48747;50.250;18.848;2022-12-19T01:12:56;-7.80;99.90
37356;DHT22;48747;50.250;18.848;2022-12-19T01:14:59;-7.80;99.90
37356;DHT22;48747;50.250;18.848;2022-12-19T01:17:02;-7.80;99.90
37356;DHT22;48747;50.250;18.848;2022-12-19T01:19:05;-7.80;99.90
37356;DHT22;48747;50.250;18.848;2022-12-19T01:21:10;-7.80;99.90
37356;DHT22;48747;50.250;18.848;2022-12-19T01:23:14;-7.90;99.90
37356;DHT22;48747;50.250;18.848;2022-12-19T01:25:18;-7.90;99.90
37356;DHT22;48747;50.250;18.848;2022-12-19T01:27:21;-7.90;99.90
37356;DHT22;48747;50.250;18.848;2022-12-19T01:29:24;-7.90;99.90
37356;DHT22;48747;50.250;18.848;2022-12-19T01:31:27;-7.90;99.90
37356;DHT22;48747;50.250;18.848;2022-12-19T01:33:31;-7.90;99.90
37356;DHT22;48747;50.250;18.848;2022-12-19T01:35:35;-7.90;99.90
37356;DHT22;48747;50.250;18.848;2022-12-19T01:37:38;-7.90;99.90
37356;DHT22;48747;50.250;18.848;2022-12-19T01:39:41;-7.90;99.90
37356;DHT22;48747;50.250;18.848;2022-12-19T01:41:44;-7.90;99.90
37356;DHT22;48747;50.250;18.848;2022-12-19T01:44:02;-7.90;99.90
37356;DHT22;48747;50.250;18.848;2022-12-19T01:46:09;-7.90;99.90
37356;DHT22;48747;50.250;18.848;2022-12-19T01:48:16;-7.90;99.90
37356;DHT22;48747;50.250;18.848;2022-12-19T01:52:35;-8.00;99.90
37356;DHT22;48747;50.250;18.848;2022-12-19T01:54:39;-8.00;99.90
37356;DHT22;48747;50.250;18.848;2022-12-19T01:56:45;-8.00;99.90
37356;DHT22;48747;50.250;18.848;2022-12-19T01:58:50;-8.10;99.90
37356;DHT22;48747;50.250;18.848;2022-12-19T02:00:54;-8.10;99.90
37356;DHT22;48747;50.250;18.848;2022-12-19T02:03:09;-8.10;99.90
37356;DHT22;48747;50.250;18.848;2022-12-19T02:05:12;-8.10;99.90
37356;DHT22;48747;50.250;18.848;2022-12-19T02:07:17;-8.00;99.90
37356;DHT22;48747;50.250;18.848;2022-12-19T02:09:21;-8.00;99.90
37356;DHT22;48747;50.250;18.848;2022-12-19T02:11:24;-8.00;99.90
37356;DHT22;48747;50.250;18.848;2022-12-19T02:13:27;-8.00;99.90
37356;DHT22;48747;50.250;18.848;2022-12-19T02:15:36;-8.00;99.90
37356;DHT22;48747;50.250;18.848;2022-12-19T02:26:58;-8.00;99.90
37356;DHT22;48747;50.250;18.848;2022-12-19T02:29:17;-8.00;99.90
37356;DHT22;48747;50.250;18.848;2022-12-19T02:33:54;-8.00;99.90
37356;DHT22;48747;50.250;18.848;2022-12-19T02:36:07;-7.90;99.90
37356;DHT22;48747;50.250;18.848;2022-12-19T02:38:17;-7.90;99.90
37356;DHT22;48747;50.250;18.848;2022-12-19T02:40:32;-7.90;99.90
37356;DHT22;48747;50.250;18.848;2022-12-19T02:42:40;-7.90;99.90
37356;DHT22;48747;50.250;18.848;2022-12-19T02:44:46;-7.90;99.90
37356;DHT22;48747;50.250;18.848;2022-12-19T02:46:50;-7.90;99.90
37356;DHT22;48747;50.250;18.848;2022-12-19T02:48:54;-7.90;99.90
37356;DHT22;48747;50.250;18.848;2022-12-19T02:50:58;-7.90;99.90
37356;DHT22;48747;50.250;18.848;2022-12-19T02:53:01;-8.00;99.90
37356;DHT22;48747;50.250;18.848;2022-12-19T02:55:10;-8.00;99.90
37356;DHT22;48747;50.250;18.848;2022-12-19T03:00:12;-8.00;99.90
37356;DHT22;48747;50.250;18.848;2022-12-19T03:02:29;-8.10;99.90
37356;DHT22;48747;50.250;18.848;2022-12-19T03:07:09;-8.00;99.90
37356;DHT22;48747;50.250;18.848;2022-12-19T03:11:16;-8.10;99.90
37356;DHT22;48747;50.250;18.848;2022-12-19T03:13:30;-8.10;99.90
37356;DHT22;48747;50.250;18.848;2022-12-19T03:15:33;-8.10;99.90
37356;DHT22;48747;50.250;18.848;2022-12-19T03:17:37;-8.00;99.90
37356;DHT22;48747;50.250;18.848;2022-12-19T03:19:41;-8.00;99.90
37356;DHT22;48747;50.250;18.848;2022-12-19T03:21:46;-8.10;99.90
37356;DHT22;48747;50.250;18.848;2022-12-19T03:23:51;-8.10;99.90
37356;DHT22;48747;50.250;18.848;2022-12-19T03:25:58;-8.10;99.90
37356;DHT22;48747;50.250;18.848;2022-12-19T03:28:04;-8.10;99.90
37356;DHT22;48747;50.250;18.848;2022-12-19T03:30:10;-8.10;99.90
37356;DHT22;48747;50.250;18.848;2022-12-19T03:32:14;-8.10;99.90
37356;DHT22;48747;50.250;18.848;2022-12-19T03:34:25;-8.10;99.90
37356;DHT22;48747;50.250;18.848;2022-12-19T03:36:40;-8.20;99.90
37356;DHT22;48747;50.250;18.848;2022-12-19T03:38:40;-8.20;99.90
37356;DHT22;48747;50.250;18.848;2022-12-19T03:40:45;-8.20;99.90
37356;DHT22;48747;50.250;18.848;2022-12-19T03:42:51;-8.20;99.90
37356;DHT22;48747;50.250;18.848;2022-12-19T03:45:16;-8.10;99.90
37356;DHT22;48747;50.250;18.848;2022-12-19T03:47:26;-8.20;99.90
37356;DHT22;48747;50.250;18.848;2022-12-19T03:49:28;-8.20;99.90
37356;DHT22;48747;50.250;18.848;2022-12-19T03:51:53;-8.20;99.90
37356;DHT22;48747;50.250;18.848;2022-12-19T03:56:36;-8.20;99.90
37356;DHT22;48747;50.250;18.848;2022-12-19T03:58:39;-8.20;99.90
37356;DHT22;48747;50.250;18.848;2022-12-19T04:00:44;-8.20;99.90
37356;DHT22;48747;50.250;18.848;2022-12-19T04:02:53;-8.20;99.90
37356;DHT22;48747;50.250;18.848;2022-12-19T04:04:59;-8.20;99.90
37356;DHT22;48747;50.250;18.848;2022-12-19T04:07:04;-8.20;99.90
37356;DHT22;48747;50.250;18.848;2022-12-19T04:09:09;-8.20;99.90
37356;DHT22;48747;50.250;18.848;2022-12-19T04:11:17;-8.20;99.90
37356;DHT22;48747;50.250;18.848;2022-12-19T04:13:43;-8.20;99.90
37356;DHT22;48747;50.250;18.848;2022-12-19T04:15:47;-8.20;99.90
37356;DHT22;48747;50.250;18.848;2022-12-19T04:17:52;-8.10;99.90
37356;DHT22;48747;50.250;18.848;2022-12-19T04:20:06;-8.20;99.90
37356;DHT22;48747;50.250;18.848;2022-12-19T04:22:20;-8.20;99.90
37356;DHT22;48747;50.250;18.848;2022-12-19T04:24:29;-8.20;99.90
37356;DHT22;48747;50.250;18.848;2022-12-19T04:26:28;-8.30;99.90
37356;DHT22;48747;50.250;18.848;2022-12-19T04:28:39;-8.30;99.90
37356;DHT22;48747;50.250;18.848;2022-12-19T04:30:39;-8.40;99.90
37356;DHT22;48747;50.250;18.848;2022-12-19T04:32:44;-8.40;99.90
37356;DHT22;48747;50.250;18.848;2022-12-19T04:34:47;-8.40;99.90
37356;DHT22;48747;50.250;18.848;2022-12-19T04:36:50;-8.40;99.90
37356;DHT22;48747;50.250;18.848;2022-12-19T04:38:53;-8.40;99.90
37356;DHT22;48747;50.250;18.848;2022-12-19T04:40:57;-8.40;99.90
37356;DHT22;48747;50.250;18.848;2022-12-19T04:43:00;-8.40;99.90
37356;DHT22;48747;50.250;18.848;2022-12-19T04:45:04;-8.50;99.90
37356;DHT22;48747;50.250;18.848;2022-12-19T04:47:07;-8.50;99.90
37356;DHT22;48747;50.250;18.848;2022-12-19T04:49:10;-8.50;99.90
37356;DHT22;48747;50.250;18.848;2022-12-19T04:51:14;-8.50;99.90
37356;DHT22;48747;50.250;18.848;2022-12-19T04:53:17;-8.50;99.90
37356;DHT22;48747;50.250;18.848;2022-12-19T04:55:20;-8.50;99.90
37356;DHT22;48747;50.250;18.848;2022-12-19T04:57:23;-8.50;99.90
37356;DHT22;48747;50.250;18.848;2022-12-19T04:59:27;-8.40;99.90
37356;DHT22;48747;50.250;18.848;2022-12-19T05:01:30;-8.40;99.90
37356;DHT22;48747;50.250;18.848;2022-12-19T05:03:33;-8.40;99.90
37356;DHT22;48747;50.250;18.848;2022-12-19T05:05:37;-8.30;99.90
37356;DHT22;48747;50.250;18.848;2022-12-19T05:07:40;-8.30;99.90
37356;DHT22;48747;50.250;18.848;2022-12-19T05:09:43;-8.30;99.90
37356;DHT22;48747;50.250;18.848;2022-12-19T05:11:46;-8.30;99.90
37356;DHT22;48747;50.250;18.848;2022-12-19T05:13:49;-8.40;99.90
37356;DHT22;48747;50.250;18.848;2022-12-19T05:16:00;-8.40;99.90
37356;DHT22;48747;50.250;18.848;2022-12-19T05:18:03;-8.40;99.90
37356;DHT22;48747;50.250;18.848;2022-12-19T05:20:07;-8.40;99.90
37356;DHT22;48747;50.250;18.848;2022-12-19T05:22:11;-8.50;99.90
37356;DHT22;48747;50.250;18.848;2022-12-19T05:24:14;-8.50;99.90
37356;DHT22;48747;50.250;18.848;2022-12-19T05:26:17;-8.50;99.90
37356;DHT22;48747;50.250;18.848;2022-12-19T05:28:20;-8.50;99.90
37356;DHT22;48747;50.250;18.848;2022-12-19T05:30:23;-8.50;99.90
37356;DHT22;48747;50.250;18.848;2022-12-19T05:32:31;-8.60;99.90
37356;DHT22;48747;50.250;18.848;2022-12-19T05:34:35;-8.60;99.90
37356;DHT22;48747;50.250;18.848;2022-12-19T05:36:38;-8.60;99.90
37356;DHT22;48747;50.250;18.848;2022-12-19T05:38:42;-8.70;99.90
37356;DHT22;48747;50.250;18.848;2022-12-19T05:40:45;-8.70;99.90
37356;DHT22;48747;50.250;18.848;2022-12-19T05:42:48;-8.70;99.90
37356;DHT22;48747;50.250;18.848;2022-12-19T05:44:51;-8.70;99.90
37356;DHT22;48747;50.250;18.848;2022-12-19T05:46:54;-8.70;99.90
37356;DHT22;48747;50.250;18.848;2022-12-19T05:48:57;-8.60;99.90
37356;DHT22;48747;50.250;18.848;2022-12-19T05:51:00;-8.60;99.90
37356;DHT22;48747;50.250;18.848;2022-12-19T05:53:03;-8.70;99.90
37356;DHT22;48747;50.250;18.848;2022-12-19T05:55:07;-8.60;99.90
37356;DHT22;48747;50.250;18.848;2022-12-19T05:57:11;-8.60;99.90
37356;DHT22;48747;50.250;18.848;2022-12-19T05:59:14;-8.60;99.90
37356;DHT22;48747;50.250;18.848;2022-12-19T06:01:22;-8.70;99.90
37356;DHT22;48747;50.250;18.848;2022-12-19T06:03:25;-8.70;99.90
37356;DHT22;48747;50.250;18.848;2022-12-19T06:05:28;-8.70;99.90
37356;DHT22;48747;50.250;18.848;2022-12-19T06:07:32;-8.80;99.90
37356;DHT22;48747;50.250;18.848;2022-12-19T06:09:35;-8.80;99.90
37356;DHT22;48747;50.250;18.848;2022-12-19T06:11:37;-8.80;99.90
37356;DHT22;48747;50.250;18.848;2022-12-19T06:13:41;-8.80;99.90
37356;DHT22;48747;50.250;18.848;2022-12-19T06:15:44;-8.80;99.90
37356;DHT22;48747;50.250;18.848;2022-12-19T06:17:47;-8.80;99.90
37356;DHT22;48747;50.250;18.848;2022-12-19T06:19:50;-8.80;99.90
37356;DHT22;48747;50.250;18.848;2022-12-19T06:21:53;-8.90;99.90
37356;DHT22;48747;50.250;18.848;2022-12-19T06:23:56;-8.90;99.90
37356;DHT22;48747;50.250;18.848;2022-12-19T06:26:00;-9.00;99.90
37356;DHT22;48747;50.250;18.848;2022-12-19T06:28:03;-9.00;99.90
37356;DHT22;48747;50.250;18.848;2022-12-19T06:30:06;-8.90;99.90
37356;DHT22;48747;50.250;18.848;2022-12-19T06:32:10;-8.90;99.90
37356;DHT22;48747;50.250;18.848;2022-12-19T06:34:13;-8.90;99.90
37356;DHT22;48747;50.250;18.848;2022-12-19T06:36:22;-8.80;99.90
37356;DHT22;48747;50.250;18.848;2022-12-19T06:38:26;-8.80;99.90
37356;DHT22;48747;50.250;18.848;2022-12-19T06:40:29;-8.90;99.90
37356;DHT22;48747;50.250;18.848;2022-12-19T06:42:51;-8.90;99.90
37356;DHT22;48747;50.250;18.848;2022-12-19T06:44:54;-8.90;99.90
37356;DHT22;48747;50.250;18.848;2022-12-19T06:46:57;-8.90;99.90
37356;DHT22;48747;50.250;18.848;2022-12-19T06:49:01;-8.90;99.90
37356;DHT22;48747;50.250;18.848;2022-12-19T06:51:04;-8.90;99.90
37356;DHT22;48747;50.250;18.848;2022-12-19T06:53:07;-9.00;99.90
37356;DHT22;48747;50.250;18.848;2022-12-19T06:55:10;-9.00;99.90
37356;DHT22;48747;50.250;18.848;2022-12-19T06:57:13;-9.00;99.90
37356;DHT22;48747;50.250;18.848;2022-12-19T06:59:16;-8.90;99.90
37356;DHT22;48747;50.250;18.848;2022-12-19T07:01:28;-8.90;99.90
37356;DHT22;48747;50.250;18.848;2022-12-19T07:03:28;-8.90;99.90
37356;DHT22;48747;50.250;18.848;2022-12-19T07:05:31;-8.90;99.90
37356;DHT22;48747;50.250;18.848;2022-12-19T07:07:34;-8.80;99.90
37356;DHT22;48747;50.250;18.848;2022-12-19T07:09:38;-8.80;99.90
37356;DHT22;48747;50.250;18.848;2022-12-19T07:11:41;-8.80;99.90
37356;DHT22;48747;50.250;18.848;2022-12-19T07:13:44;-8.80;99.90
37356;DHT22;48747;50.250;18.848;2022-12-19T07:15:47;-8.80;99.90
37356;DHT22;48747;50.250;18.848;2022-12-19T07:17:51;-8.70;99.90
37356;DHT22;48747;50.250;18.848;2022-12-19T07:19:55;-8.60;99.90
37356;DHT22;48747;50.250;18.848;2022-12-19T07:22:00;-8.60;99.90
37356;DHT22;48747;50.250;18.848;2022-12-19T07:24:04;-8.60;99.90
37356;DHT22;48747;50.250;18.848;2022-12-19T07:26:08;-8.60;99.90
37356;DHT22;48747;50.250;18.848;2022-12-19T07:28:11;-8.60;99.90
37356;DHT22;48747;50.250;18.848;2022-12-19T07:30:14;-8.60;99.90
37356;DHT22;48747;50.250;18.848;2022-12-19T07:32:17;-8.50;99.90
37356;DHT22;48747;50.250;18.848;2022-12-19T07:34:20;-8.50;99.90
37356;DHT22;48747;50.250;18.848;2022-12-19T07:36:23;-8.50;99.90
37356;DHT22;48747;50.250;18.848;2022-12-19T07:38:27;-8.50;99.90
37356;DHT22;48747;50.250;18.848;2022-12-19T07:40:32;-8.40;99.90
37356;DHT22;48747;50.250;18.848;2022-12-19T07:42:35;-8.40;99.90
37356;DHT22;48747;50.250;18.848;2022-12-19T07:44:38;-8.40;99.90
37356;DHT22;48747;50.250;18.848;2022-12-19T07:46:43;-8.40;99.90
37356;DHT22;48747;50.250;18.848;2022-12-19T07:48:46;-8.40;99.90
37356;DHT22;48747;50.250;18.848;2022-12-19T07:50:49;-8.40;99.90
37356;DHT22;48747;50.250;18.848;2022-12-19T07:52:52;-8.30;99.90
37356;DHT22;48747;50.250;18.848;2022-12-19T07:54:56;-8.30;99.90
37356;DHT22;48747;50.250;18.848;2022-12-19T07:57:00;-8.20;99.90
37356;DHT22;48747;50.250;18.848;2022-12-19T07:59:03;-8.10;99.90
37356;DHT22;48747;50.250;18.848;2022-12-19T08:01:06;-8.10;99.90
37356;DHT22;48747;50.250;18.848;2022-12-19T08:03:11;-8.00;99.90
37356;DHT22;48747;50.250;18.848;2022-12-19T08:05:15;-7.90;99.90
37356;DHT22;48747;50.250;18.848;2022-12-19T08:07:18;-7.80;99.90
37356;DHT22;48747;50.250;18.848;2022-12-19T08:09:21;-7.80;99.90
37356;DHT22;48747;50.250;18.848;2022-12-19T08:11:27;-7.70;99.90
37356;DHT22;48747;50.250;18.848;2022-12-19T08:13:31;-7.60;99.90
37356;DHT22;48747;50.250;18.848;2022-12-19T08:15:34;-7.60;99.90
37356;DHT22;48747;50.250;18.848;2022-12-19T08:17:37;-7.60;99.90
37356;DHT22;48747;50.250;18.848;2022-12-19T08:19:40;-7.50;99.90
37356;DHT22;48747;50.250;18.848;2022-12-19T08:21:43;-7.50;99.90
37356;DHT22;48747;50.250;18.848;2022-12-19T08:23:47;-7.40;99.90
37356;DHT22;48747;50.250;18.848;2022-12-19T08:25:58;-7.30;99.90
37356;DHT22;48747;50.250;18.848;2022-12-19T08:28:01;-7.30;99.90
37356;DHT22;48747;50.250;18.848;2022-12-19T08:30:05;-7.20;99.90
37356;DHT22;48747;50.250;18.848;2022-12-19T08:32:09;-7.20;99.90
37356;DHT22;48747;50.250;18.848;2022-12-19T08:34:13;-7.10;99.90
37356;DHT22;48747;50.250;18.848;2022-12-19T08:36:17;-7.00;99.90
37356;DHT22;48747;50.250;18.848;2022-12-19T08:38:21;-6.90;99.90
37356;DHT22;48747;50.250;18.848;2022-12-19T08:40:24;-6.80;99.90
37356;DHT22;48747;50.250;18.848;2022-12-19T08:42:27;-6.80;99.90
37356;DHT22;48747;50.250;18.848;2022-12-19T08:44:30;-6.80;99.90
37356;DHT22;48747;50.250;18.848;2022-12-19T08:46:33;-6.80;99.90
37356;DHT22;48747;50.250;18.848;2022-12-19T08:48:36;-6.80;99.90
37356;DHT22;48747;50.250;18.848;2022-12-19T08:50:39;-6.70;99.90
37356;DHT22;48747;50.250;18.848;2022-12-19T08:52:43;-6.60;99.90
37356;DHT22;48747;50.250;18.848;2022-12-19T08:54:47;-6.60;99.90
37356;DHT22;48747;50.250;18.848;2022-12-19T08:56:51;-6.50;99.90
37356;DHT22;48747;50.250;18.848;2022-12-19T08:58:54;-6.40;99.90
37356;DHT22;48747;50.250;18.848;2022-12-19T09:01:02;-6.30;99.90
37356;DHT22;48747;50.250;18.848;2022-12-19T09:03:07;-6.30;99.90
37356;DHT22;48747;50.250;18.848;2022-12-19T09:05:10;-6.20;99.90
37356;DHT22;48747;50.250;18.848;2022-12-19T09:07:13;-6.10;99.90
37356;DHT22;48747;50.250;18.848;2022-12-19T09:09:16;-6.10;99.90
37356;DHT22;48747;50.250;18.848;2022-12-19T09:11:20;-6.00;99.90
37356;DHT22;48747;50.250;18.848;2022-12-19T09:13:25;-5.90;99.90
37356;DHT22;48747;50.250;18.848;2022-12-19T09:15:28;-5.80;99.90
37356;DHT22;48747;50.250;18.848;2022-12-19T09:17:31;-5.70;99.90
37356;DHT22;48747;50.250;18.848;2022-12-19T09:19:34;-5.60;99.90
37356;DHT22;48747;50.250;18.848;2022-12-19T09:21:37;-5.50;99.90
37356;DHT22;48747;50.250;18.848;2022-12-19T09:23:42;-5.50;99.90
37356;DHT22;48747;50.250;18.848;2022-12-19T09:25:46;-5.30;99.90
37356;DHT22;48747;50.250;18.848;2022-12-19T09:27:50;-5.20;99.90
37356;DHT22;48747;50.250;18.848;2022-12-19T09:29:53;-5.00;99.90
37356;DHT22;48747;50.250;18.848;2022-12-19T09:31:56;-5.00;99.90
37356;DHT22;48747;50.250;18.848;2022-12-19T09:33:59;-4.90;99.90
37356;DHT22;48747;50.250;18.848;2022-12-19T09:36:03;-4.70;99.90
37356;DHT22;48747;50.250;18.848;2022-12-19T09:38:07;-4.70;99.90
37356;DHT22;48747;50.250;18.848;2022-12-19T09:40:12;-4.60;99.90
37356;DHT22;48747;50.250;18.848;2022-12-19T09:47:13;-4.60;99.90
37356;DHT22;48747;50.250;18.848;2022-12-19T09:49:11;-4.70;99.90
37356;DHT22;48747;50.250;18.848;2022-12-19T09:51:33;-4.70;99.90
37356;DHT22;48747;50.250;18.848;2022-12-19T09:56:00;-4.70;99.90
37356;DHT22;48747;50.250;18.848;2022-12-19T09:58:31;-4.70;99.90
37356;DHT22;48747;50.250;18.848;2022-12-19T10:00:55;-4.70;99.90
37356;DHT22;48747;50.250;18.848;2022-12-19T10:07:43;-4.60;99.90
37356;DHT22;48747;50.250;18.848;2022-12-19T10:09:46;-4.60;99.90
37356;DHT22;48747;50.250;18.848;2022-12-19T10:12:32;-4.50;99.90
37356;DHT22;48747;50.250;18.848;2022-12-19T10:14:28;-4.40;99.90
37356;DHT22;48747;50.250;18.848;2022-12-19T10:17:13;-4.40;99.90
37356;DHT22;48747;50.250;18.848;2022-12-19T10:18:55;-4.30;99.90
37356;DHT22;48747;50.250;18.848;2022-12-19T10:21:05;-4.20;99.90
37356;DHT22;48747;50.250;18.848;2022-12-19T10:27:53;-4.00;99.90
37356;DHT22;48747;50.250;18.848;2022-12-19T10:30:18;-3.90;99.90
37356;DHT22;48747;50.250;18.848;2022-12-19T10:32:34;-3.80;99.90
37356;DHT22;48747;50.250;18.848;2022-12-19T10:34:40;-3.70;99.90
37356;DHT22;48747;50.250;18.848;2022-12-19T10:36:49;-3.60;99.90
37356;DHT22;48747;50.250;18.848;2022-12-19T10:39:02;-3.50;99.90
37356;DHT22;48747;50.250;18.848;2022-12-19T10:41:26;-3.50;99.90
37356;DHT22;48747;50.250;18.848;2022-12-19T10:43:52;-3.50;99.90
37356;DHT22;48747;50.250;18.848;2022-12-19T10:45:57;-3.40;99.90
37356;DHT22;48747;50.250;18.848;2022-12-19T10:48:05;-3.30;99.90
37356;DHT22;48747;50.250;18.848;2022-12-19T10:50:16;-3.20;99.90
37356;DHT22;48747;50.250;18.848;2022-12-19T10:54:46;-3.10;99.90
37356;DHT22;48747;50.250;18.848;2022-12-19T10:56:49;-3.10;99.90
37356;DHT22;48747;50.250;18.848;2022-12-19T10:58:54;-3.10;99.90
37356;DHT22;48747;50.250;18.848;2022-12-19T11:01:01;-3.00;99.90
37356;DHT22;48747;50.250;18.848;2022-12-19T11:03:14;-2.90;99.90
37356;DHT22;48747;50.250;18.848;2022-12-19T11:08:02;-2.80;99.90
37356;DHT22;48747;50.250;18.848;2022-12-19T11:10:23;-2.70;99.90
37356;DHT22;48747;50.250;18.848;2022-12-19T11:12:12;-2.70;99.90
37356;DHT22;48747;50.250;18.848;2022-12-19T11:14:21;-2.60;99.90
37356;DHT22;48747;50.250;18.848;2022-12-19T11:16:32;-2.60;99.90
37356;DHT22;48747;50.250;18.848;2022-12-19T11:21:00;-2.60;99.90
37356;DHT22;48747;50.250;18.848;2022-12-19T11:22:58;-2.50;99.90
37356;DHT22;48747;50.250;18.848;2022-12-19T11:25:13;-2.60;99.90
37356;DHT22;48747;50.250;18.848;2022-12-19T11:29:47;-2.50;99.90
37356;DHT22;48747;50.250;18.848;2022-12-19T11:31:56;-2.50;99.90
37356;DHT22;48747;50.250;18.848;2022-12-19T11:34:12;-2.50;99.90
37356;DHT22;48747;50.250;18.848;2022-12-19T11:37:01;-2.50;99.90
37356;DHT22;48747;50.250;18.848;2022-12-19T11:40:50;-2.50;99.90
37356;DHT22;48747;50.250;18.848;2022-12-19T11:42:57;-2.40;99.90
37356;DHT22;48747;50.250;18.848;2022-12-19T11:45:28;-2.40;99.90
37356;DHT22;48747;50.250;18.848;2022-12-19T11:49:57;-2.40;99.90
37356;DHT22;48747;50.250;18.848;2022-12-19T11:56:17;-2.30;99.90
37356;DHT22;48747;50.250;18.848;2022-12-19T11:58:23;-2.20;99.90
37356;DHT22;48747;50.250;18.848;2022-12-19T12:00:30;-2.20;99.90
37356;DHT22;48747;50.250;18.848;2022-12-19T12:07:09;-2.10;99.90
37356;DHT22;48747;50.250;18.848;2022-12-19T12:11:49;-2.10;99.90
37356;DHT22;48747;50.250;18.848;2022-12-19T12:14:03;-2.10;99.90
37356;DHT22;48747;50.250;18.848;2022-12-19T12:16:15;-2.10;99.90
37356;DHT22;48747;50.250;18.848;2022-12-19T12:20:51;-2.00;99.90
37356;DHT22;48747;50.250;18.848;2022-12-19T12:25:18;-2.00;99.90
37356;DHT22;48747;50.250;18.848;2022-12-19T12:30:14;-1.90;99.90
37356;DHT22;48747;50.250;18.848;2022-12-19T12:32:38;-2.00;99.90
37356;DHT22;48747;50.250;18.848;2022-12-19T12:41:38;-2.10;99.90
37356;DHT22;48747;50.250;18.848;2022-12-19T12:44:06;-2.10;99.90
37356;DHT22;48747;50.250;18.848;2022-12-19T12:46:16;-2.10;99.90
37356;DHT22;48747;50.250;18.848;2022-12-19T12:48:52;-2.20;99.90
37356;DHT22;48747;50.250;18.848;2022-12-19T12:50:40;-2.20;99.90
37356;DHT22;48747;50.250;18.848;2022-12-19T12:52:49;-2.20;99.90
37356;DHT22;48747;50.250;18.848;2022-12-19T12:54:53;-2.20;99.90
37356;DHT22;48747;50.250;18.848;2022-12-19T12:56:59;-2.20;99.90
37356;DHT22;48747;50.250;18.848;2022-12-19T12:59:24;-2.20;99.90
37356;DHT22;48747;50.250;18.848;2022-12-19T13:01:33;-2.20;99.90
37356;DHT22;48747;50.250;18.848;2022-12-19T13:03:40;-2.20;99.90
37356;DHT22;48747;50.250;18.848;2022-12-19T13:07:54;-2.20;99.90
37356;DHT22;48747;50.250;18.848;2022-12-19T13:10:24;-2.20;99.90
37356;DHT22;48747;50.250;18.848;2022-12-19T13:12:19;-2.10;99.90
37356;DHT22;48747;50.250;18.848;2022-12-19T13:14:43;-2.10;99.90
37356;DHT22;48747;50.250;18.848;2022-12-19T13:16:51;-2.10;99.90
37356;DHT22;48747;50.250;18.848;2022-12-19T13:19:14;-2.10;99.90
37356;DHT22;48747;50.250;18.848;2022-12-19T13:21:17;-2.10;99.90
37356;DHT22;48747;50.250;18.848;2022-12-19T13:27:47;-2.10;99.90
37356;DHT22;48747;50.250;18.848;2022-12-19T13:30:03;-2.10;99.90
37356;DHT22;48747;50.250;18.848;2022-12-19T13:32:13;-2.10;99.90
37356;DHT22;48747;50.250;18.848;2022-12-19T13:34:18;-2.10;99.90
37356;DHT22;48747;50.250;18.848;2022-12-19T13:36:48;-2.10;99.90
37356;DHT22;48747;50.250;18.848;2022-12-19T13:38:52;-2.10;99.90
37356;DHT22;48747;50.250;18.848;2022-12-19T13:41:00;-2.20;99.90
37356;DHT22;48747;50.250;18.848;2022-12-19T13:45:35;-2.30;99.90
37356;DHT22;48747;50.250;18.848;2022-12-19T13:47:40;-2.40;99.90
37356;DHT22;48747;50.250;18.848;2022-12-19T13:49:43;-2.40;99.90
37356;DHT22;48747;50.250;18.848;2022-12-19T13:51:50;-2.40;99.90
37356;DHT22;48747;50.250;18.848;2022-12-19T13:53:54;-2.40;99.90
37356;DHT22;48747;50.250;18.848;2022-12-19T13:58:29;-2.40;99.90
37356;DHT22;48747;50.250;18.848;2022-12-19T14:00:39;-2.50;99.90
37356;DHT22;48747;50.250;18.848;2022-12-19T14:02:54;-2.60;99.90
37356;DHT22;48747;50.250;18.848;2022-12-19T14:04:54;-2.60;99.90
37356;DHT22;48747;50.250;18.848;2022-12-19T14:07:05;-2.70;99.90
37356;DHT22;48747;50.250;18.848;2022-12-19T14:11:40;-2.80;99.90
37356;DHT22;48747;50.250;18.848;2022-12-19T14:13:48;-2.90;99.90
37356;DHT22;48747;50.250;18.848;2022-12-19T14:16:16;-3.00;99.90
37356;DHT22;48747;50.250;18.848;2022-12-19T14:18:26;-3.10;99.90
37356;DHT22;48747;50.250;18.848;2022-12-19T14:20:32;-3.10;99.90
37356;DHT22;48747;50.250;18.848;2022-12-19T14:22:35;-3.20;99.90
37356;DHT22;48747;50.250;18.848;2022-12-19T14:24:39;-3.20;99.90
37356;DHT22;48747;50.250;18.848;2022-12-19T14:27:00;-3.20;99.90
37356;DHT22;48747;50.250;18.848;2022-12-19T14:29:11;-3.20;99.90
37356;DHT22;48747;50.250;18.848;2022-12-19T14:31:16;-3.30;99.90
37356;DHT22;48747;50.250;18.848;2022-12-19T14:33:26;-3.40;99.90
37356;DHT22;48747;50.250;18.848;2022-12-19T14:35:34;-3.40;99.90
37356;DHT22;48747;50.250;18.848;2022-12-19T14:37:42;-3.50;99.90
37356;DHT22;48747;50.250;18.848;2022-12-19T14:39:53;-3.60;99.90